sensor_id;sensor_type;location;lat;lon;timestamp;temperature;humidity
32187;DHT22;18686;53.084;8.872;2023-11-22T00:00:35;4.30;99.90
32187;DHT22;18686;53.084;8.872;2023-11-22T00:03:03;4.30;99.90
32187;DHT22;18686;53.084;8.872;2023-11-22T00:05:31;4.30;99.90
32187;DHT22;18686;53.084;8.872;2023-11-22T00:07:59;4.30;99.90
32187;DHT22;18686;53.084;8.872;2023-11-22T00:10:29;4.20;99.90
32187;DHT22;18686;53.084;8.872;2023-11-22T00:12:57;4.30;99.90
32187;DHT22;18686;53.084;8.872;2023-11-22T00:15:26;4.30;99.90
32187;DHT22;18686;53.084;8.872;2023-11-22T00:17:54;4.10;99.90
32187;DHT22;18686;53.084;8.872;2023-11-22T00:20:24;4.10;99.90
32187;DHT22;18686;53.084;8.872;2023-11-22T00:22:53;4.00;99.90
32187;DHT22;18686;53.084;8.872;2023-11-22T00:25:21;3.90;99.90
32187;DHT22;18686;53.084;8.872;2023-11-22T00:27:50;3.90;99.90
32187;DHT22;18686;53.084;8.872;2023-11-22T00:30:18;3.80;99.90
32187;DHT22;18686;53.084;8.872;2023-11-22T00:32:47;3.70;99.90
32187;DHT22;18686;53.084;8.872;2023-11-22T00:35:15;3.80;99.90
32187;DHT22;18686;53.084;8.872;2023-11-22T00:37:44;3.70;99.90
32187;DHT22;18686;53.084;8.872;2023-11-22T00:40:13;3.60;99.90
32187;DHT22;18686;53.084;8.872;2023-11-22T00:42:41;3.60;99.90
32187;DHT22;18686;53.084;8.872;2023-11-22T00:45:11;3.60;99.90
32187;DHT22;18686;53.084;8.872;2023-11-22T00:47:40;3.50;99.90
32187;DHT22;18686;53.084;8.872;2023-11-22T00:50:10;3.50;99.90
32187;DHT22;18686;53.084;8.872;2023-11-22T00:52:38;3.50;99.90
32187;DHT22;18686;53.084;8.872;2023-11-22T00:55:07;3.40;99.90
32187;DHT22;18686;53.084;8.872;2023-11-22T00:57:35;3.30;99.90
32187;DHT22;18686;53.084;8.872;2023-11-22T01:00:05;3.30;99.90
32187;DHT22;18686;53.084;8.872;2023-11-22T01:02:37;3.20;99.90
32187;DHT22;18686;53.084;8.872;2023-11-22T01:05:07;3.10;99.90
32187;DHT22;18686;53.084;8.872;2023-11-22T01:07:38;2.90;99.90
32187;DHT22;18686;53.084;8.872;2023-11-22T01:10:07;2.80;99.90
32187;DHT22;18686;53.084;8.872;2023-11-22T01:12:36;2.80;99.90
32187;DHT22;18686;53.084;8.872;2023-11-22T01:15:05;2.60;99.90
32187;DHT22;18686;53.084;8.872;2023-11-22T01:17:33;2.50;99.90
32187;DHT22;18686;53.084;8.872;2023-11-22T01:20:04;2.40;99.90
32187;DHT22;18686;53.084;8.872;2023-11-22T01:22:33;2.40;99.90
32187;DHT22;18686;53.084;8.872;2023-11-22T01:25:01;2.30;99.90
32187;DHT22;18686;53.084;8.872;2023-11-22T01:27:29;2.20;99.90
32187;DHT22;18686;53.084;8.872;2023-11-22T01:29:57;2.10;99.90
32187;DHT22;18686;53.084;8.872;2023-11-22T01:32:26;2.10;99.90
32187;DHT22;18686;53.084;8.872;2023-11-22T01:34:54;2.10;99.90
32187;DHT22;18686;53.084;8.872;2023-11-22T01:37:26;2.00;99.90
32187;DHT22;18686;53.084;8.872;2023-11-22T01:39:55;2.00;99.90
32187;DHT22;18686;53.084;8.872;2023-11-22T01:42:25;1.90;99.90
32187;DHT22;18686;53.084;8.872;2023-11-22T01:44:53;1.90;99.90
32187;DHT22;18686;53.084;8.872;2023-11-22T01:47:22;1.80;99.90
32187;DHT22;18686;53.084;8.872;2023-11-22T01:49:50;1.70;99.90
32187;DHT22;18686;53.084;8.872;2023-11-22T01:52:18;1.70;99.90
32187;DHT22;18686;53.084;8.872;2023-11-22T01:54:48;1.70;99.90
32187;DHT22;18686;53.084;8.872;2023-11-22T01:57:17;1.70;99.90
32187;DHT22;18686;53.084;8.872;2023-11-22T01:59:46;1.60;99.90
32187;DHT22;18686;53.084;8.872;2023-11-22T02:02:15;1.50;99.90
32187;DHT22;18686;53.084;8.872;2023-11-22T02:04:43;1.60;99.90
32187;DHT22;18686;53.084;8.872;2023-11-22T02:07:12;1.50;99.90
32187;DHT22;18686;53.084;8.872;2023-11-22T02:09:42;1.50;99.90
32187;DHT22;18686;53.084;8.872;2023-11-22T02:12:14;1.50;99.90
32187;DHT22;18686;53.084;8.872;2023-11-22T02:14:42;1.30;99.90
32187;DHT22;18686;53.084;8.872;2023-11-22T02:17:10;1.30;99.90
32187;DHT22;18686;53.084;8.872;2023-11-22T02:19:38;1.30;99.90
32187;DHT22;18686;53.084;8.872;2023-11-22T02:22:07;1.30;99.90
32187;DHT22;18686;53.084;8.872;2023-11-22T02:24:36;1.30;99.90
32187;DHT22;18686;53.084;8.872;2023-11-22T02:27:04;1.30;99.90
32187;DHT22;18686;53.084;8.872;2023-11-22T02:29:33;1.10;99.90
32187;DHT22;18686;53.084;8.872;2023-11-22T02:32:02;1.20;99.90
32187;DHT22;18686;53.084;8.872;2023-11-22T02:34:31;1.10;99.90
32187;DHT22;18686;53.084;8.872;2023-11-22T02:36:59;1.20;99.90
32187;DHT22;18686;53.084;8.872;2023-11-22T02:39:41;1.10;99.90
32187;DHT22;18686;53.084;8.872;2023-11-22T02:42:13;1.20;99.90
32187;DHT22;18686;53.084;8.872;2023-11-22T02:44:42;1.20;99.90
32187;DHT22;18686;53.084;8.872;2023-11-22T02:47:10;1.10;99.90
32187;DHT22;18686;53.084;8.872;2023-11-22T02:49:38;1.10;99.90
32187;DHT22;18686;53.084;8.872;2023-11-22T02:52:06;1.10;99.90
32187;DHT22;18686;53.084;8.872;2023-11-22T02:54:35;1.20;99.90
32187;DHT22;18686;53.084;8.872;2023-11-22T02:57:05;1.10;99.90
32187;DHT22;18686;53.084;8.872;2023-11-22T02:59:33;1.10;99.90
32187;DHT22;18686;53.084;8.872;2023-11-22T03:02:02;1.20;99.90
32187;DHT22;18686;53.084;8.872;2023-11-22T03:04:30;1.10;99.90
32187;DHT22;18686;53.084;8.872;2023-11-22T03:06:58;1.10;99.90
32187;DHT22;18686;53.084;8.872;2023-11-22T03:09:26;1.10;99.90
32187;DHT22;18686;53.084;8.872;2023-11-22T03:11:54;1.20;99.90
32187;DHT22;18686;53.084;8.872;2023-11-22T03:14:24;1.20;99.90
32187;DHT22;18686;53.084;8.872;2023-11-22T03:16:52;1.10;99.90
32187;DHT22;18686;53.084;8.872;2023-11-22T03:19:21;1.10;99.90
32187;DHT22;18686;53.084;8.872;2023-11-22T03:21:49;1.20;99.90
32187;DHT22;18686;53.084;8.872;2023-11-22T03:24:17;1.20;99.90
32187;DHT22;18686;53.084;8.872;2023-11-22T03:26:45;1.20;99.90
32187;DHT22;18686;53.084;8.872;2023-11-22T03:29:14;1.20;99.90
32187;DHT22;18686;53.084;8.872;2023-11-22T03:31:46;1.20;99.90
32187;DHT22;18686;53.084;8.872;2023-11-22T03:34:14;1.20;99.90
32187;DHT22;18686;53.084;8.872;2023-11-22T03:36:43;1.20;99.90
32187;DHT22;18686;53.084;8.872;2023-11-22T03:39:11;1.20;99.90
32187;DHT22;18686;53.084;8.872;2023-11-22T03:41:44;1.20;99.90
32187;DHT22;18686;53.084;8.872;2023-11-22T03:44:12;1.20;99.90
32187;DHT22;18686;53.084;8.872;2023-11-22T03:46:40;1.20;99.90
32187;DHT22;18686;53.084;8.872;2023-11-22T03:49:10;1.10;99.90
32187;DHT22;18686;53.084;8.872;2023-11-22T03:51:39;1.10;99.90
32187;DHT22;18686;53.084;8.872;2023-11-22T03:54:07;1.10;99.90
32187;DHT22;18686;53.084;8.872;2023-11-22T03:56:37;1.00;99.90
32187;DHT22;18686;53.084;8.872;2023-11-22T03:59:05;1.00;99.90
32187;DHT22;18686;53.084;8.872;2023-11-22T04:01:32;1.00;99.90
32187;DHT22;18686;53.084;8.872;2023-11-22T04:04:01;0.90;99.90
32187;DHT22;18686;53.084;8.872;2023-11-22T04:06:30;0.90;99.90
32187;DHT22;18686;53.084;8.872;2023-11-22T04:09:00;0.90;99.90
32187;DHT22;18686;53.084;8.872;2023-11-22T04:11:28;0.90;99.90
32187;DHT22;18686;53.084;8.872;2023-11-22T04:13:57;0.80;99.90
32187;DHT22;18686;53.084;8.872;2023-11-22T04:16:25;0.80;99.90
32187;DHT22;18686;53.084;8.872;2023-11-22T04:18:54;0.70;99.90
32187;DHT22;18686;53.084;8.872;2023-11-22T04:21:23;0.70;99.90
32187;DHT22;18686;53.084;8.872;2023-11-22T04:23:53;0.60;99.90
32187;DHT22;18686;53.084;8.872;2023-11-22T04:26:22;0.60;99.90
32187;DHT22;18686;53.084;8.872;2023-11-22T04:28:51;0.60;99.90
32187;DHT22;18686;53.084;8.872;2023-11-22T04:31:20;0.60;99.90
32187;DHT22;18686;53.084;8.872;2023-11-22T04:33:48;0.50;99.90
32187;DHT22;18686;53.084;8.872;2023-11-22T04:36:17;0.50;99.90
32187;DHT22;18686;53.084;8.872;2023-11-22T04:38:49;0.40;99.90
32187;DHT22;18686;53.084;8.872;2023-11-22T04:41:19;0.40;99.90
32187;DHT22;18686;53.084;8.872;2023-11-22T04:43:47;0.40;99.90
32187;DHT22;18686;53.084;8.872;2023-11-22T04:46:15;0.40;99.90
32187;DHT22;18686;53.084;8.872;2023-11-22T04:48:43;0.40;99.90
32187;DHT22;18686;53.084;8.872;2023-11-22T04:51:14;0.40;99.90
32187;DHT22;18686;53.084;8.872;2023-11-22T04:53:47;0.40;99.90
32187;DHT22;18686;53.084;8.872;2023-11-22T04:56:15;0.40;99.90
32187;DHT22;18686;53.084;8.872;2023-11-22T04:58:45;0.40;99.90
32187;DHT22;18686;53.084;8.872;2023-11-22T05:01:13;0.30;99.90
32187;DHT22;18686;53.084;8.872;2023-11-22T05:03:46;0.30;99.90
32187;DHT22;18686;53.084;8.872;2023-11-22T05:06:14;0.30;99.90
32187;DHT22;18686;53.084;8.872;2023-11-22T05:08:43;0.30;99.90
32187;DHT22;18686;53.084;8.872;2023-11-22T05:11:13;0.20;99.90
32187;DHT22;18686;53.084;8.872;2023-11-22T05:13:42;0.20;99.90
32187;DHT22;18686;53.084;8.872;2023-11-22T05:16:12;0.20;99.90
32187;DHT22;18686;53.084;8.872;2023-11-22T05:18:41;0.20;99.90
32187;DHT22;18686;53.084;8.872;2023-11-22T05:21:09;0.20;99.90
32187;DHT22;18686;53.084;8.872;2023-11-22T05:23:37;0.20;99.90
32187;DHT22;18686;53.084;8.872;2023-11-22T05:26:07;0.10;99.90
32187;DHT22;18686;53.084;8.872;2023-11-22T05:28:36;0.10;99.90
32187;DHT22;18686;53.084;8.872;2023-11-22T05:31:05;0.00;99.90
32187;DHT22;18686;53.084;8.872;2023-11-22T05:33:34;0.00;99.90
32187;DHT22;18686;53.084;8.872;2023-11-22T05:36:03;0.00;99.90
32187;DHT22;18686;53.084;8.872;2023-11-22T05:38:31;0.00;99.90
32187;DHT22;18686;53.084;8.872;2023-11-22T05:41:00;-0.10;99.90
32187;DHT22;18686;53.084;8.872;2023-11-22T05:43:29;-0.10;99.90
32187;DHT22;18686;53.084;8.872;2023-11-22T05:45:57;0.00;99.90
32187;DHT22;18686;53.084;8.872;2023-11-22T05:48:26;-0.10;99.90
32187;DHT22;18686;53.084;8.872;2023-11-22T05:50:56;-0.10;99.90
32187;DHT22;18686;53.084;8.872;2023-11-22T05:53:25;-0.10;99.90
32187;DHT22;18686;53.084;8.872;2023-11-22T05:55:54;-0.10;99.90
32187;DHT22;18686;53.084;8.872;2023-11-22T05:58:23;-0.10;99.90
32187;DHT22;18686;53.084;8.872;2023-11-22T06:00:52;-0.10;99.90
32187;DHT22;18686;53.084;8.872;2023-11-22T06:03:21;-0.20;99.90
32187;DHT22;18686;53.084;8.872;2023-11-22T06:05:52;-0.10;99.90
32187;DHT22;18686;53.084;8.872;2023-11-22T06:08:23;-0.10;99.90
32187;DHT22;18686;53.084;8.872;2023-11-22T06:10:52;-0.10;99.90
32187;DHT22;18686;53.084;8.872;2023-11-22T06:13:24;-0.10;99.90
32187;DHT22;18686;53.084;8.872;2023-11-22T06:15:53;-0.10;99.90
32187;DHT22;18686;53.084;8.872;2023-11-22T06:18:21;-0.10;99.90
32187;DHT22;18686;53.084;8.872;2023-11-22T06:20:49;-0.10;99.90
32187;DHT22;18686;53.084;8.872;2023-11-22T06:23:18;-0.10;99.90
32187;DHT22;18686;53.084;8.872;2023-11-22T06:25:47;0.00;99.90
32187;DHT22;18686;53.084;8.872;2023-11-22T06:28:16;0.00;99.90
32187;DHT22;18686;53.084;8.872;2023-11-22T06:30:45;0.10;99.90
32187;DHT22;18686;53.084;8.872;2023-11-22T06:33:13;0.10;99.90
32187;DHT22;18686;53.084;8.872;2023-11-22T06:35:42;0.10;99.90
32187;DHT22;18686;53.084;8.872;2023-11-22T06:38:10;0.20;99.90
32187;DHT22;18686;53.084;8.872;2023-11-22T06:40:38;0.10;99.90
32187;DHT22;18686;53.084;8.872;2023-11-22T06:43:08;0.20;99.90
32187;DHT22;18686;53.084;8.872;2023-11-22T06:45:36;0.20;99.90
32187;DHT22;18686;53.084;8.872;2023-11-22T06:48:05;0.20;99.90
32187;DHT22;18686;53.084;8.872;2023-11-22T06:50:33;0.30;99.90
32187;DHT22;18686;53.084;8.872;2023-11-22T06:53:02;0.40;99.90
32187;DHT22;18686;53.084;8.872;2023-11-22T06:55:31;0.40;99.90
32187;DHT22;18686;53.084;8.872;2023-11-22T06:58:00;0.50;99.90
32187;DHT22;18686;53.084;8.872;2023-11-22T07:00:29;0.60;99.90
32187;DHT22;18686;53.084;8.872;2023-11-22T07:02:58;0.70;99.90
32187;DHT22;18686;53.084;8.872;2023-11-22T07:05:26;0.80;99.90
32187;DHT22;18686;53.084;8.872;2023-11-22T07:07:57;0.90;99.90
32187;DHT22;18686;53.084;8.872;2023-11-22T07:10:26;1.00;99.90
32187;DHT22;18686;53.084;8.872;2023-11-22T07:12:54;1.10;99.90
32187;DHT22;18686;53.084;8.872;2023-11-22T07:15:23;1.20;99.90
32187;DHT22;18686;53.084;8.872;2023-11-22T07:17:52;1.40;99.90
32187;DHT22;18686;53.084;8.872;2023-11-22T07:20:21;1.50;99.90
32187;DHT22;18686;53.084;8.872;2023-11-22T07:22:50;1.60;99.90
32187;DHT22;18686;53.084;8.872;2023-11-22T07:25:22;1.70;99.90
32187;DHT22;18686;53.084;8.872;2023-11-22T07:27:52;1.80;99.90
32187;DHT22;18686;53.084;8.872;2023-11-22T07:30:21;1.90;99.90
32187;DHT22;18686;53.084;8.872;2023-11-22T07:32:51;1.90;99.90
32187;DHT22;18686;53.084;8.872;2023-11-22T07:35:20;1.90;99.90
32187;DHT22;18686;53.084;8.872;2023-11-22T07:37:49;2.00;99.90
32187;DHT22;18686;53.084;8.872;2023-11-22T07:40:18;1.90;99.90
32187;DHT22;18686;53.084;8.872;2023-11-22T07:42:49;1.90;99.90
32187;DHT22;18686;53.084;8.872;2023-11-22T07:45:17;2.00;99.90
32187;DHT22;18686;53.084;8.872;2023-11-22T07:47:45;2.00;99.90
32187;DHT22;18686;53.084;8.872;2023-11-22T07:50:16;2.00;99.90
32187;DHT22;18686;53.084;8.872;2023-11-22T07:52:44;2.10;99.90
32187;DHT22;18686;53.084;8.872;2023-11-22T07:55:12;2.10;99.90
32187;DHT22;18686;53.084;8.872;2023-11-22T07:57:41;2.20;99.90
32187;DHT22;18686;53.084;8.872;2023-11-22T08:00:11;2.30;99.90
32187;DHT22;18686;53.084;8.872;2023-11-22T08:02:40;2.30;99.90
32187;DHT22;18686;53.084;8.872;2023-11-22T08:05:10;2.50;99.90
32187;DHT22;18686;53.084;8.872;2023-11-22T08:07:43;2.60;99.90
32187;DHT22;18686;53.084;8.872;2023-11-22T08:10:16;2.70;99.90
32187;DHT22;18686;53.084;8.872;2023-11-22T08:12:46;2.80;99.90
32187;DHT22;18686;53.084;8.872;2023-11-22T08:15:16;2.90;99.90
32187;DHT22;18686;53.084;8.872;2023-11-22T08:17:46;3.00;99.90
32187;DHT22;18686;53.084;8.872;2023-11-22T08:20:15;3.10;99.90
32187;DHT22;18686;53.084;8.872;2023-11-22T08:22:47;3.20;99.90
32187;DHT22;18686;53.084;8.872;2023-11-22T08:25:18;3.30;99.90
32187;DHT22;18686;53.084;8.872;2023-11-22T08:27:46;3.40;99.90
32187;DHT22;18686;53.084;8.872;2023-11-22T08:30:16;3.50;99.90
32187;DHT22;18686;53.084;8.872;2023-11-22T08:32:46;3.60;99.90
32187;DHT22;18686;53.084;8.872;2023-11-22T08:35:21;3.70;99.90
32187;DHT22;18686;53.084;8.872;2023-11-22T08:37:52;3.60;99.90
32187;DHT22;18686;53.084;8.872;2023-11-22T08:40:20;3.70;99.90
32187;DHT22;18686;53.084;8.872;2023-11-22T08:42:49;3.60;99.90
32187;DHT22;18686;53.084;8.872;2023-11-22T08:45:17;3.70;99.90
32187;DHT22;18686;53.084;8.872;2023-11-22T08:47:45;3.70;99.90
32187;DHT22;18686;53.084;8.872;2023-11-22T08:50:14;3.70;99.90
32187;DHT22;18686;53.084;8.872;2023-11-22T08:52:43;3.70;99.90
32187;DHT22;18686;53.084;8.872;2023-11-22T08:55:13;3.80;99.90
32187;DHT22;18686;53.084;8.872;2023-11-22T08:57:42;3.80;99.90
32187;DHT22;18686;53.084;8.872;2023-11-22T09:00:12;3.90;99.90
32187;DHT22;18686;53.084;8.872;2023-11-22T09:02:41;4.00;99.90
32187;DHT22;18686;53.084;8.872;2023-11-22T09:05:10;4.00;99.90
32187;DHT22;18686;53.084;8.872;2023-11-22T09:07:40;4.10;99.90
32187;DHT22;18686;53.084;8.872;2023-11-22T09:10:12;4.20;99.90
32187;DHT22;18686;53.084;8.872;2023-11-22T09:12:42;4.20;99.90
32187;DHT22;18686;53.084;8.872;2023-11-22T09:15:12;4.20;99.90
32187;DHT22;18686;53.084;8.872;2023-11-22T09:17:43;4.20;99.90
32187;DHT22;18686;53.084;8.872;2023-11-22T09:20:15;4.20;99.90
32187;DHT22;18686;53.084;8.872;2023-11-22T09:22:44;4.20;99.90
32187;DHT22;18686;53.084;8.872;2023-11-22T09:25:17;4.30;99.90
32187;DHT22;18686;53.084;8.872;2023-11-22T09:27:49;4.30;99.90
32187;DHT22;18686;53.084;8.872;2023-11-22T09:30:20;4.30;99.90
32187;DHT22;18686;53.084;8.872;2023-11-22T09:33:03;4.30;99.90
32187;DHT22;18686;53.084;8.872;2023-11-22T09:35:32;4.40;99.90
32187;DHT22;18686;53.084;8.872;2023-11-22T09:38:01;4.50;99.90
32187;DHT22;18686;53.084;8.872;2023-11-22T09:40:31;4.60;99.90
32187;DHT22;18686;53.084;8.872;2023-11-22T09:43:00;4.70;99.90
32187;DHT22;18686;53.084;8.872;2023-11-22T09:45:31;4.90;99.90
32187;DHT22;18686;53.084;8.872;2023-11-22T09:47:59;5.10;99.90
32187;DHT22;18686;53.084;8.872;2023-11-22T09:50:34;5.20;99.90
32187;DHT22;18686;53.084;8.872;2023-11-22T09:53:11;5.40;99.90
32187;DHT22;18686;53.084;8.872;2023-11-22T09:55:44;5.50;99.90
32187;DHT22;18686;53.084;8.872;2023-11-22T09:58:13;5.60;99.90
32187;DHT22;18686;53.084;8.872;2023-11-22T10:00:44;5.80;99.90
32187;DHT22;18686;53.084;8.872;2023-11-22T10:03:13;6.00;99.90
32187;DHT22;18686;53.084;8.872;2023-11-22T10:05:42;6.10;99.90
32187;DHT22;18686;53.084;8.872;2023-11-22T10:08:11;6.20;99.90
32187;DHT22;18686;53.084;8.872;2023-11-22T10:10:41;6.40;99.90
32187;DHT22;18686;53.084;8.872;2023-11-22T10:13:11;6.40;99.90
32187;DHT22;18686;53.084;8.872;2023-11-22T10:15:42;6.50;99.90
32187;DHT22;18686;53.084;8.872;2023-11-22T10:18:11;6.50;99.90
32187;DHT22;18686;53.084;8.872;2023-11-22T10:20:41;6.50;99.90
32187;DHT22;18686;53.084;8.872;2023-11-22T10:23:11;6.50;99.90
32187;DHT22;18686;53.084;8.872;2023-11-22T10:25:45;6.50;99.90
32187;DHT22;18686;53.084;8.872;2023-11-22T10:28:14;6.60;99.90
32187;DHT22;18686;53.084;8.872;2023-11-22T10:30:45;6.60;99.90
32187;DHT22;18686;53.084;8.872;2023-11-22T10:33:14;6.70;99.90
32187;DHT22;18686;53.084;8.872;2023-11-22T10:35:43;6.90;99.90
32187;DHT22;18686;53.084;8.872;2023-11-22T10:38:13;6.90;99.90
32187;DHT22;18686;53.084;8.872;2023-11-22T10:40:42;6.90;99.90
32187;DHT22;18686;53.084;8.872;2023-11-22T10:43:14;7.00;99.90
32187;DHT22;18686;53.084;8.872;2023-11-22T10:45:45;6.80;99.90
32187;DHT22;18686;53.084;8.872;2023-11-22T10:48:16;6.80;99.90
32187;DHT22;18686;53.084;8.872;2023-11-22T10:50:45;6.70;99.90
32187;DHT22;18686;53.084;8.872;2023-11-22T10:53:16;6.60;99.90
32187;DHT22;18686;53.084;8.872;2023-11-22T10:55:57;6.50;99.90
32187;DHT22;18686;53.084;8.872;2023-11-22T10:58:33;6.40;99.90
32187;DHT22;18686;53.084;8.872;2023-11-22T11:01:05;6.40;99.90
32187;DHT22;18686;53.084;8.872;2023-11-22T11:03:44;6.30;99.90
32187;DHT22;18686;53.084;8.872;2023-11-22T11:06:19;6.30;99.90
32187;DHT22;18686;53.084;8.872;2023-11-22T11:08:50;6.40;99.90
32187;DHT22;18686;53.084;8.872;2023-11-22T11:11:19;6.40;99.90
32187;DHT22;18686;53.084;8.872;2023-11-22T11:13:51;6.40;99.90
32187;DHT22;18686;53.084;8.872;2023-11-22T11:16:20;6.50;99.90
32187;DHT22;18686;53.084;8.872;2023-11-22T11:18:49;6.60;99.90
32187;DHT22;18686;53.084;8.872;2023-11-22T11:21:19;7.10;99.90
32187;DHT22;18686;53.084;8.872;2023-11-22T11:23:52;7.70;99.90
32187;DHT22;18686;53.084;8.872;2023-11-22T11:26:25;8.40;99.90
32187;DHT22;18686;53.084;8.872;2023-11-22T11:28:55;9.30;99.90
32187;DHT22;18686;53.084;8.872;2023-11-22T11:31:23;9.90;99.90
32187;DHT22;18686;53.084;8.872;2023-11-22T11:33:56;10.10;99.90
32187;DHT22;18686;53.084;8.872;2023-11-22T11:36:27;10.10;99.90
32187;DHT22;18686;53.084;8.872;2023-11-22T11:38:57;10.00;99.90
32187;DHT22;18686;53.084;8.872;2023-11-22T11:41:28;10.30;99.90
32187;DHT22;18686;53.084;8.872;2023-11-22T11:44:01;10.70;99.90
32187;DHT22;18686;53.084;8.872;2023-11-22T11:46:30;10.60;99.90
32187;DHT22;18686;53.084;8.872;2023-11-22T11:49:00;10.80;99.90
32187;DHT22;18686;53.084;8.872;2023-11-22T11:51:31;10.60;99.90
32187;DHT22;18686;53.084;8.872;2023-11-22T11:53:59;10.50;99.90
32187;DHT22;18686;53.084;8.872;2023-11-22T11:56:28;10.10;99.90
32187;DHT22;18686;53.084;8.872;2023-11-22T11:58:58;10.10;99.90
32187;DHT22;18686;53.084;8.872;2023-11-22T12:01:28;9.90;99.90
32187;DHT22;18686;53.084;8.872;2023-11-22T12:04:01;9.50;99.90
32187;DHT22;18686;53.084;8.872;2023-11-22T12:06:32;9.10;99.90
32187;DHT22;18686;53.084;8.872;2023-11-22T12:09:06;8.70;99.90
32187;DHT22;18686;53.084;8.872;2023-11-22T12:11:35;8.30;99.90
32187;DHT22;18686;53.084;8.872;2023-11-22T12:14:05;8.10;99.90
32187;DHT22;18686;53.084;8.872;2023-11-22T12:16:35;7.90;99.90
32187;DHT22;18686;53.084;8.872;2023-11-22T12:19:05;7.80;99.90
32187;DHT22;18686;53.084;8.872;2023-11-22T12:21:35;7.70;99.90
32187;DHT22;18686;53.084;8.872;2023-11-22T12:24:04;7.80;99.90
32187;DHT22;18686;53.084;8.872;2023-11-22T12:26:34;7.60;99.90
32187;DHT22;18686;53.084;8.872;2023-11-22T12:29:02;7.50;99.90
32187;DHT22;18686;53.084;8.872;2023-11-22T12:31:34;7.60;99.90
32187;DHT22;18686;53.084;8.872;2023-11-22T12:34:04;7.70;99.90
32187;DHT22;18686;53.084;8.872;2023-11-22T12:36:34;7.80;99.90
32187;DHT22;18686;53.084;8.872;2023-11-22T12:39:07;7.50;99.90
32187;DHT22;18686;53.084;8.872;2023-11-22T12:41:48;7.20;99.90
32187;DHT22;18686;53.084;8.872;2023-11-22T12:44:32;7.10;99.90
32187;DHT22;18686;53.084;8.872;2023-11-22T12:47:30;6.90;99.90
32187;DHT22;18686;53.084;8.872;2023-11-22T12:50:02;6.80;99.90
32187;DHT22;18686;53.084;8.872;2023-11-22T12:52:31;6.70;99.90
32187;DHT22;18686;53.084;8.872;2023-11-22T12:55:00;6.70;99.90
32187;DHT22;18686;53.084;8.872;2023-11-22T12:57:29;6.60;99.90
32187;DHT22;18686;53.084;8.872;2023-11-22T12:59:58;6.50;99.90
32187;DHT22;18686;53.084;8.872;2023-11-22T13:02:28;6.50;99.90
32187;DHT22;18686;53.084;8.872;2023-11-22T13:04:59;6.40;99.90
32187;DHT22;18686;53.084;8.872;2023-11-22T13:07:29;6.50;99.90
32187;DHT22;18686;53.084;8.872;2023-11-22T13:09:58;6.60;99.90
32187;DHT22;18686;53.084;8.872;2023-11-22T13:12:26;6.50;99.90
32187;DHT22;18686;53.084;8.872;2023-11-22T13:14:56;6.50;99.90
32187;DHT22;18686;53.084;8.872;2023-11-22T13:17:24;6.60;99.90
32187;DHT22;18686;53.084;8.872;2023-11-22T13:19:54;6.50;99.90
32187;DHT22;18686;53.084;8.872;2023-11-22T13:22:23;6.40;99.90
32187;DHT22;18686;53.084;8.872;2023-11-22T13:24:52;6.20;99.90
32187;DHT22;18686;53.084;8.872;2023-11-22T13:27:21;6.10;99.90
32187;DHT22;18686;53.084;8.872;2023-11-22T13:29:49;5.90;99.90
32187;DHT22;18686;53.084;8.872;2023-11-22T13:32:19;5.80;99.90
32187;DHT22;18686;53.084;8.872;2023-11-22T13:34:52;5.80;99.90
32187;DHT22;18686;53.084;8.872;2023-11-22T13:37:28;5.80;99.90
32187;DHT22;18686;53.084;8.872;2023-11-22T13:39:57;5.60;99.90
32187;DHT22;18686;53.084;8.872;2023-11-22T13:42:25;5.50;99.90
32187;DHT22;18686;53.084;8.872;2023-11-22T13:44:53;5.50;99.90
32187;DHT22;18686;53.084;8.872;2023-11-22T13:47:22;5.40;99.90
32187;DHT22;18686;53.084;8.872;2023-11-22T13:49:50;5.40;99.90
32187;DHT22;18686;53.084;8.872;2023-11-22T13:52:19;5.40;99.90
32187;DHT22;18686;53.084;8.872;2023-11-22T13:54:48;5.30;99.90
32187;DHT22;18686;53.084;8.872;2023-11-22T13:57:18;5.30;99.90
32187;DHT22;18686;53.084;8.872;2023-11-22T13:59:47;5.20;99.90
32187;DHT22;18686;53.084;8.872;2023-11-22T14:02:15;5.10;99.90
32187;DHT22;18686;53.084;8.872;2023-11-22T14:04:44;5.20;99.90
32187;DHT22;18686;53.084;8.872;2023-11-22T14:07:13;5.10;99.90
32187;DHT22;18686;53.084;8.872;2023-11-22T14:09:41;5.10;99.90
32187;DHT22;18686;53.084;8.872;2023-11-22T14:12:15;5.00;99.90
32187;DHT22;18686;53.084;8.872;2023-11-22T14:14:45;5.00;99.90
32187;DHT22;18686;53.084;8.872;2023-11-22T14:17:14;4.90;99.90
32187;DHT22;18686;53.084;8.872;2023-11-22T14:19:42;4.90;99.90
32187;DHT22;18686;53.084;8.872;2023-11-22T14:22:20;4.90;99.90
32187;DHT22;18686;53.084;8.872;2023-11-22T14:24:49;4.80;99.90
32187;DHT22;18686;53.084;8.872;2023-11-22T14:27:19;4.80;99.90
32187;DHT22;18686;53.084;8.872;2023-11-22T14:29:47;4.80;99.90
32187;DHT22;18686;53.084;8.872;2023-11-22T14:32:19;4.70;99.90
32187;DHT22;18686;53.084;8.872;2023-11-22T14:34:47;4.60;99.90
32187;DHT22;18686;53.084;8.872;2023-11-22T14:37:16;4.60;99.90
32187;DHT22;18686;53.084;8.872;2023-11-22T14:39:44;4.60;99.90
32187;DHT22;18686;53.084;8.872;2023-11-22T14:42:13;4.60;99.90
32187;DHT22;18686;53.084;8.872;2023-11-22T14:44:47;4.60;99.90
32187;DHT22;18686;53.084;8.872;2023-11-22T14:47:16;4.60;99.90
32187;DHT22;18686;53.084;8.872;2023-11-22T14:49:52;4.60;99.90
32187;DHT22;18686;53.084;8.872;2023-11-22T14:52:21;4.60;99.90
32187;DHT22;18686;53.084;8.872;2023-11-22T14:54:50;4.60;99.90
32187;DHT22;18686;53.084;8.872;2023-11-22T14:57:19;4.50;99.90
32187;DHT22;18686;53.084;8.872;2023-11-22T14:59:50;4.50;99.90
32187;DHT22;18686;53.084;8.872;2023-11-22T15:02:19;4.50;99.90
32187;DHT22;18686;53.084;8.872;2023-11-22T15:04:48;4.50;99.90
32187;DHT22;18686;53.084;8.872;2023-11-22T15:07:17;4.50;99.90
32187;DHT22;18686;53.084;8.872;2023-11-22T15:09:45;4.40;99.90
32187;DHT22;18686;53.084;8.872;2023-11-22T15:12:14;4.40;99.90
32187;DHT22;18686;53.084;8.872;2023-11-22T15:14:43;4.40;99.90
32187;DHT22;18686;53.084;8.872;2023-11-22T15:17:14;4.40;99.90
32187;DHT22;18686;53.084;8.872;2023-11-22T15:19:44;4.40;99.90
32187;DHT22;18686;53.084;8.872;2023-11-22T15:22:13;4.40;99.90
32187;DHT22;18686;53.084;8.872;2023-11-22T15:24:41;4.30;99.90
32187;DHT22;18686;53.084;8.872;2023-11-22T15:27:10;4.40;99.90
32187;DHT22;18686;53.084;8.872;2023-11-22T15:29:39;4.30;99.90
32187;DHT22;18686;53.084;8.872;2023-11-22T15:32:07;4.30;99.90
32187;DHT22;18686;53.084;8.872;2023-11-22T15:34:37;4.30;99.90
32187;DHT22;18686;53.084;8.872;2023-11-22T15:37:05;4.20;99.90
32187;DHT22;18686;53.084;8.872;2023-11-22T15:39:33;4.20;99.90
32187;DHT22;18686;53.084;8.872;2023-11-22T15:42:02;4.20;99.90
32187;DHT22;18686;53.084;8.872;2023-11-22T15:44:33;4.10;99.90
32187;DHT22;18686;53.084;8.872;2023-11-22T15:47:01;4.10;99.90
32187;DHT22;18686;53.084;8.872;2023-11-22T15:49:31;4.10;99.90
32187;DHT22;18686;53.084;8.872;2023-11-22T15:52:02;4.10;99.90
32187;DHT22;18686;53.084;8.872;2023-11-22T15:54:30;4.00;99.90
32187;DHT22;18686;53.084;8.872;2023-11-22T15:56:59;4.10;99.90
32187;DHT22;18686;53.084;8.872;2023-11-22T15:59:28;4.00;99.90